createdAt,value
2022-08-19T00:01:30.656Z,41.53
2022-08-19T00:04:02.367Z,41.39
2022-08-19T00:06:29.916Z,41.61
2022-08-19T00:08:57.717Z,41.47
2022-08-19T00:11:26.062Z,42.07
2022-08-19T00:13:53.139Z,41.75
2022-08-19T00:16:20.294Z,41.69
2022-08-19T00:18:52.897Z,42.09
2022-08-19T00:21:19.409Z,41.84
2022-08-19T00:23:45.858Z,41.79
2022-08-19T00:26:12.564Z,41.96
2022-08-19T00:28:39.774Z,42.00
2022-08-19T00:31:08.077Z,41.90
2022-08-19T00:33:34.882Z,42.20
2022-08-19T00:36:02.250Z,42.19
2022-08-19T00:38:36.320Z,42.41
2022-08-19T00:41:05.979Z,42.66
2022-08-19T00:43:32.520Z,42.71
2022-08-19T00:45:58.977Z,42.68
2022-08-19T00:48:25.502Z,42.34
2022-08-19T00:50:54.030Z,42.68
2022-08-19T00:53:22.798Z,42.54
2022-08-19T00:55:51.364Z,42.57
2022-08-19T00:58:20.060Z,42.67
2022-08-19T01:00:46.832Z,42.51
2022-08-19T01:03:16.306Z,42.43
2022-08-19T01:05:46.686Z,42.43
2022-08-19T01:08:14.781Z,42.61
2022-08-19T01:10:55.250Z,42.67
2022-08-19T01:13:23.914Z,42.59
2022-08-19T01:15:53.168Z,42.37
2022-08-19T01:18:20.557Z,42.80
2022-08-19T01:20:47.562Z,42.85
2022-08-19T01:23:14.629Z,42.64
2022-08-19T01:25:51.395Z,42.92
2022-08-19T01:28:19.345Z,42.68
2022-08-19T01:31:00.833Z,42.96
2022-08-19T01:33:27.299Z,42.58
2022-08-19T01:35:53.762Z,43.28
2022-08-19T01:38:22.810Z,43.02
2022-08-19T01:40:51.047Z,42.62
2022-08-19T01:43:18.135Z,42.75
2022-08-19T01:45:44.581Z,43.32
2022-08-19T01:48:11.604Z,43.26
2022-08-19T01:50:38.761Z,43.20
2022-08-19T01:53:07.748Z,43.16
2022-08-19T01:55:40.474Z,43.30
2022-08-19T01:58:08.800Z,43.27
2022-08-19T02:00:35.390Z,43.72
2022-08-19T02:03:02.191Z,43.72
2022-08-19T02:05:30.155Z,43.56
2022-08-19T02:07:57.419Z,43.92
2022-08-19T02:10:23.921Z,44.06
2022-08-19T02:12:50.941Z,44.25
2022-08-19T02:15:20.455Z,43.99
2022-08-19T02:17:47.623Z,44.20
2022-08-19T02:20:14.400Z,44.19
2022-08-19T02:22:43.321Z,44.02
2022-08-19T02:25:14.202Z,43.92
2022-08-19T02:27:40.931Z,44.18
2022-08-19T02:30:09.688Z,43.99
2022-08-19T02:32:44.271Z,44.20
2022-08-19T02:35:12.226Z,44.41
2022-08-19T02:37:57.601Z,44.33
2022-08-19T02:40:24.430Z,44.51
2022-08-19T02:42:51.819Z,44.64
2022-08-19T02:45:18.736Z,44.83
2022-08-19T02:47:45.305Z,44.60
2022-08-19T02:50:11.762Z,44.81
2022-08-19T02:52:38.240Z,45.13
2022-08-19T02:55:05.404Z,45.04
2022-08-19T02:57:32.774Z,45.27
2022-08-19T02:59:59.613Z,45.04
2022-08-19T03:02:26.135Z,45.24
2022-08-19T03:04:52.590Z,45.20
2022-08-19T03:07:19.655Z,44.90
2022-08-19T03:09:46.223Z,44.45
2022-08-19T03:12:12.683Z,45.18
2022-08-19T03:14:39.160Z,45.19
2022-08-19T03:17:06.190Z,45.34
2022-08-19T03:19:32.669Z,45.47
2022-08-19T03:21:59.583Z,45.66
2022-08-19T03:24:26.065Z,45.52
2022-08-19T03:26:56.753Z,45.63
2022-08-19T03:29:30.128Z,45.90
2022-08-19T03:32:02.060Z,45.97
2022-08-19T03:34:32.857Z,46.07
2022-08-19T03:37:01.513Z,46.03
2022-08-19T03:39:28.170Z,46.33
2022-08-19T03:42:32.753Z,46.51
2022-08-19T03:44:45.967Z,46.68
2022-08-19T03:47:17.102Z,46.55
2022-08-19T03:49:43.762Z,46.40
2022-08-19T03:52:10.222Z,46.55
2022-08-19T03:54:36.937Z,46.34
2022-08-19T03:57:03.985Z,46.40
2022-08-19T03:59:32.329Z,46.36
2022-08-19T04:02:00.275Z,46.45
2022-08-19T04:04:29.045Z,46.44
2022-08-19T04:06:56.236Z,46.32
2022-08-19T04:09:22.703Z,46.30
2022-08-19T04:11:51.042Z,46.40
2022-08-19T04:14:19.448Z,46.77
2022-08-19T04:16:47.349Z,46.35
2022-08-19T04:19:14.322Z,46.28
2022-08-19T04:21:41.133Z,46.38
2022-08-19T04:24:08.140Z,46.25
2022-08-19T04:26:36.121Z,46.40
2022-08-19T04:29:04.376Z,46.57
2022-08-19T04:31:31.853Z,46.60
2022-08-19T04:33:59.873Z,46.47
2022-08-19T04:36:28.294Z,46.11
2022-08-19T04:38:55.921Z,46.13
2022-08-19T04:41:41.129Z,46.59
2022-08-19T04:44:08.017Z,46.37
2022-08-19T04:46:39.810Z,46.13
2022-08-19T04:49:19.522Z,45.88
2022-08-19T04:51:48.321Z,45.73
2022-08-19T04:54:15.686Z,46.19
2022-08-19T04:56:55.366Z,46.23
2022-08-19T04:59:22.535Z,46.12
2022-08-19T05:01:50.709Z,46.25
2022-08-19T05:04:21.524Z,46.18
2022-08-19T05:06:48.962Z,46.37
2022-08-19T05:09:16.318Z,46.29
2022-08-19T05:11:43.115Z,46.42
2022-08-19T05:14:10.387Z,46.42
2022-08-19T05:16:36.878Z,46.38
2022-08-19T05:19:22.230Z,46.07
2022-08-19T05:22:07.173Z,45.84
2022-08-19T05:24:44.042Z,45.84
2022-08-19T05:27:17.943Z,45.44
2022-08-19T05:29:44.469Z,45.42
2022-08-19T05:32:11.536Z,45.58
2022-08-19T05:34:39.194Z,45.17
2022-08-19T05:37:06.627Z,44.71
2022-08-19T05:39:34.448Z,44.11
2022-08-19T05:42:09.026Z,43.92
2022-08-19T05:44:37.550Z,43.90
2022-08-19T05:47:05.505Z,43.49
2022-08-19T05:49:32.912Z,43.13
2022-08-19T05:52:00.471Z,42.83
2022-08-19T05:54:26.951Z,42.81
2022-08-19T05:56:54.144Z,42.24
2022-08-19T05:59:22.478Z,42.47
2022-08-19T06:01:55.332Z,42.06
2022-08-19T06:04:22.540Z,41.90
2022-08-19T06:06:52.640Z,41.31
2022-08-19T06:09:19.698Z,41.65
2022-08-19T06:11:56.850Z,40.56
2022-08-19T06:14:27.833Z,40.06
2022-08-19T06:16:54.782Z,39.79
2022-08-19T06:19:22.923Z,38.53
2022-08-19T06:21:51.617Z,35.75
2022-08-19T06:24:19.912Z,34.04
2022-08-19T06:29:23.562Z,30.83
2022-08-19T06:31:52.178Z,29.36
2022-08-19T06:34:19.406Z,28.86
2022-08-19T06:36:47.497Z,28.67
2022-08-19T06:39:15.678Z,27.34
2022-08-19T06:41:49.302Z,27.24
2022-08-19T06:44:19.774Z,27.73
2022-08-19T06:46:54.810Z,26.41
2022-08-19T06:49:22.108Z,26.58
2022-08-19T06:51:49.325Z,26.38
2022-08-19T06:54:19.350Z,27.64
2022-08-19T06:56:46.797Z,27.92
2022-08-19T06:59:20.662Z,26.61
2022-08-19T07:01:50.977Z,26.03
2022-08-19T07:04:19.637Z,26.20
2022-08-19T07:06:54.845Z,25.59
2022-08-19T07:09:22.435Z,25.38
2022-08-19T07:11:50.271Z,25.47
2022-08-19T07:14:19.913Z,23.98
2022-08-19T07:16:48.270Z,24.94
2022-08-19T07:19:16.145Z,24.16
2022-08-19T07:21:43.177Z,23.20
2022-08-19T07:24:10.441Z,23.75
2022-08-19T07:26:42.199Z,23.88
2022-08-19T07:29:09.087Z,25.26
2022-08-19T07:31:37.678Z,24.26
2022-08-19T07:34:07.674Z,23.95
2022-08-19T07:36:35.098Z,22.37
2022-08-19T07:39:04.193Z,23.00
2022-08-19T07:41:31.633Z,23.50
2022-08-19T07:43:59.165Z,23.67
2022-08-19T07:46:25.636Z,24.22
2022-08-19T07:48:52.472Z,24.42
2022-08-19T07:51:36.325Z,22.70
2022-08-19T07:54:04.320Z,22.64
2022-08-19T07:56:30.842Z,22.83
2022-08-19T08:01:29.531Z,20.56
2022-08-19T08:04:16.091Z,19.60
2022-08-19T08:07:01.277Z,18.90
2022-08-19T08:09:30.525Z,18.50
2022-08-19T08:12:04.982Z,18.55
2022-08-19T08:14:47.073Z,19.22
2022-08-19T08:17:14.530Z,20.28
2022-08-19T08:19:57.997Z,19.21
2022-08-19T08:22:43.644Z,19.38
2022-08-19T08:25:14.805Z,19.15
2022-08-19T08:27:42.354Z,20.13
2022-08-19T08:30:13.468Z,20.94
2022-08-19T08:32:40.490Z,20.72
2022-08-19T08:35:08.705Z,21.10
2022-08-19T08:37:35.193Z,19.86
2022-08-19T08:40:11.284Z,19.15
2022-08-19T08:42:44.962Z,18.33
2022-08-19T08:45:15.883Z,20.18
2022-08-19T08:47:47.433Z,19.82
2022-08-19T08:50:15.794Z,19.90
2022-08-19T08:52:50.025Z,19.71
2022-08-19T08:55:20.513Z,19.72
2022-08-19T08:57:50.084Z,19.25
2022-08-19T09:00:21.936Z,18.62
2022-08-19T09:02:50.444Z,18.10
2022-08-19T09:05:22.366Z,16.92
2022-08-19T09:07:54.607Z,16.94
2022-08-19T09:10:44.457Z,17.26
2022-08-19T09:13:37.349Z,17.43
2022-08-19T09:16:21.965Z,18.04
2022-08-19T09:18:58.685Z,18.82
2022-08-19T09:21:33.097Z,18.02
2022-08-19T09:24:00.170Z,18.22
2022-08-19T09:26:29.823Z,18.47
2022-08-19T09:29:14.569Z,17.70
2022-08-19T09:31:41.072Z,19.50
2022-08-19T09:34:07.607Z,19.87
2022-08-19T09:36:48.138Z,18.86
2022-08-19T09:39:16.028Z,18.53
2022-08-19T09:41:47.259Z,18.49
2022-08-19T09:44:15.383Z,19.10
2022-08-19T09:46:41.844Z,19.46
2022-08-19T09:49:08.450Z,19.07
2022-08-19T09:51:35.199Z,20.80
2022-08-19T09:54:05.341Z,20.28
2022-08-19T09:56:32.610Z,19.44
2022-08-19T09:59:00.695Z,18.83
2022-08-19T10:01:29.202Z,20.25
2022-08-19T10:03:57.109Z,20.80
2022-08-19T10:06:45.589Z,21.22
2022-08-19T10:09:11.947Z,21.73
2022-08-19T10:11:46.881Z,22.03
2022-08-19T10:14:23.370Z,21.36
2022-08-19T10:16:50.435Z,22.15
2022-08-19T10:19:25.309Z,21.32
2022-08-19T10:21:53.069Z,21.00
2022-08-19T10:24:21.476Z,22.12
2022-08-19T10:26:57.040Z,21.46
2022-08-19T10:29:31.990Z,21.16
2022-08-19T10:32:02.821Z,20.14
2022-08-19T10:34:29.793Z,19.75
2022-08-19T10:37:01.214Z,20.07
2022-08-19T10:39:30.836Z,19.95
2022-08-19T10:41:57.906Z,20.90
2022-08-19T10:44:25.022Z,20.41
2022-08-19T10:46:59.960Z,20.51
2022-08-19T10:49:26.485Z,20.05
2022-08-19T10:52:18.069Z,20.54
2022-08-19T10:55:08.636Z,20.78
2022-08-19T11:00:22.422Z,21.38
2022-08-19T11:02:48.930Z,20.95
2022-08-19T11:05:15.848Z,21.30
2022-08-19T11:07:43.195Z,21.29
2022-08-19T11:10:13.161Z,20.90
2022-08-19T11:12:41.626Z,21.72
2022-08-19T11:15:09.792Z,20.96
2022-08-19T11:17:36.949Z,21.48
2022-08-19T11:20:06.106Z,21.47
2022-08-19T11:22:36.631Z,21.77
2022-08-19T11:25:08.465Z,21.80
2022-08-19T11:27:38.193Z,21.89
2022-08-19T11:30:04.911Z,22.12
2022-08-19T11:32:35.392Z,21.72
2022-08-19T11:35:02.038Z,21.84
2022-08-19T11:37:28.500Z,22.25
2022-08-19T11:39:55.401Z,21.16
2022-08-19T11:42:40.713Z,21.34
2022-08-19T11:45:07.522Z,21.90
2022-08-19T11:47:34.098Z,22.37
2022-08-19T11:50:00.588Z,22.33
2022-08-19T11:52:27.518Z,22.76
2022-08-19T11:54:53.976Z,22.20
2022-08-19T11:57:20.900Z,22.14
2022-08-19T11:59:53.708Z,22.57
2022-08-19T12:02:20.443Z,22.20
2022-08-19T12:04:46.902Z,23.13
2022-08-19T12:07:13.359Z,22.90
2022-08-19T12:09:42.657Z,22.21
2022-08-19T12:12:09.853Z,22.09
2022-08-19T12:14:36.765Z,22.12
2022-08-19T12:17:05.391Z,22.24
2022-08-19T12:19:31.842Z,22.16
2022-08-19T12:22:03.733Z,22.57
2022-08-19T12:24:33.759Z,22.86
2022-08-19T12:27:03.111Z,22.85
2022-08-19T12:29:30.396Z,22.42
2022-08-19T12:32:03.867Z,21.39
2022-08-19T12:34:31.140Z,21.75
2022-08-19T12:36:58.662Z,22.12
2022-08-19T12:39:25.514Z,21.48
2022-08-19T12:41:55.062Z,21.77
2022-08-19T12:44:29.420Z,22.08
2022-08-19T12:46:58.865Z,22.07
2022-08-19T12:49:53.160Z,22.04
2022-08-19T12:52:16.154Z,21.81
2022-08-19T12:54:44.208Z,21.79
2022-08-19T12:57:11.542Z,22.25
2022-08-19T12:59:38.837Z,21.10
2022-08-19T13:02:08.712Z,21.93
2022-08-19T13:04:37.311Z,22.20
2022-08-19T13:07:04.166Z,22.20
2022-08-19T13:09:30.623Z,21.14
2022-08-19T13:11:57.821Z,21.45
2022-08-19T13:14:24.300Z,21.24
2022-08-19T13:16:53.513Z,21.63
2022-08-19T13:19:22.013Z,21.05
2022-08-19T13:21:50.398Z,21.78
2022-08-19T13:24:17.027Z,22.33
2022-08-19T13:26:44.369Z,22.18
2022-08-19T13:29:29.369Z,22.82
2022-08-19T13:32:18.556Z,22.56
2022-08-19T13:34:47.591Z,22.43
2022-08-19T13:37:14.116Z,23.09
2022-08-19T13:39:40.796Z,22.88
2022-08-19T13:42:08.259Z,22.99
2022-08-19T13:44:34.758Z,23.80
2022-08-19T13:47:08.162Z,23.31
2022-08-19T13:49:36.837Z,24.03
2022-08-19T13:52:04.501Z,26.56
2022-08-19T13:54:31.045Z,27.52
2022-08-19T13:56:57.500Z,28.13
2022-08-19T13:59:24.006Z,28.89
2022-08-19T14:01:50.998Z,29.09
2022-08-19T14:04:17.462Z,29.29
2022-08-19T14:06:43.963Z,29.55
2022-08-19T14:09:10.414Z,29.60
2022-08-19T14:11:36.985Z,30.40
2022-08-19T14:14:03.509Z,30.32
2022-08-19T14:16:31.424Z,30.78
2022-08-19T14:18:58.117Z,30.43
2022-08-19T14:21:26.132Z,30.02
2022-08-19T14:23:53.093Z,30.19
2022-08-19T14:26:20.487Z,29.81
2022-08-19T14:28:46.997Z,30.23
2022-08-19T14:31:16.034Z,30.53
2022-08-19T14:33:43.358Z,30.30
2022-08-19T14:36:09.836Z,30.60
2022-08-19T14:38:37.556Z,29.86
2022-08-19T14:41:23.353Z,29.84
2022-08-19T14:43:50.848Z,29.48
2022-08-19T14:46:20.646Z,28.09
2022-08-19T14:48:47.736Z,27.79
2022-08-19T14:51:19.281Z,27.94
2022-08-19T14:53:45.941Z,27.13
2022-08-19T14:56:14.159Z,27.46
2022-08-19T14:58:41.980Z,27.25
2022-08-19T15:01:08.934Z,27.19
2022-08-19T15:03:35.728Z,26.86
2022-08-19T15:06:03.737Z,26.99
2022-08-19T15:08:31.046Z,26.92
2022-08-19T15:10:58.120Z,26.63
2022-08-19T15:13:25.654Z,26.78
2022-08-19T15:15:52.699Z,27.13
2022-08-19T15:18:21.348Z,26.63
2022-08-19T15:20:48.355Z,27.60
2022-08-19T15:23:17.645Z,27.39
2022-08-19T15:25:44.428Z,27.57
2022-08-19T15:28:16.414Z,28.02
2022-08-19T15:30:44.497Z,27.84
2022-08-19T15:33:11.558Z,28.44
2022-08-19T15:35:39.653Z,28.19
2022-08-19T15:38:06.580Z,28.70
2022-08-19T15:40:33.051Z,29.30
2022-08-19T15:42:59.515Z,29.36
2022-08-19T15:45:32.670Z,29.18
2022-08-19T15:48:02.595Z,28.99
2022-08-19T15:50:31.935Z,29.49
2022-08-19T15:53:01.016Z,29.33
2022-08-19T15:55:33.131Z,29.33
2022-08-19T15:58:28.355Z,29.57
2022-08-19T16:01:14.281Z,29.86
2022-08-19T16:03:59.476Z,29.72
2022-08-19T16:06:25.985Z,29.56
2022-08-19T16:08:56.739Z,29.57
2022-08-19T16:11:29.300Z,29.48
2022-08-19T16:13:57.861Z,30.21
2022-08-19T16:16:31.008Z,29.76
2022-08-19T16:19:02.772Z,30.02
2022-08-19T16:21:33.427Z,30.05
2022-08-19T16:24:01.287Z,29.69
2022-08-19T16:26:31.107Z,30.28
2022-08-19T16:28:59.362Z,30.43
2022-08-19T16:31:26.468Z,30.91
2022-08-19T16:33:53.079Z,30.79
2022-08-19T16:36:19.610Z,30.87
2022-08-19T16:38:48.248Z,31.24
2022-08-19T16:41:15.004Z,31.26
2022-08-19T16:43:42.073Z,31.63
2022-08-19T16:46:09.613Z,31.60
2022-08-19T16:48:39.125Z,32.14
2022-08-19T16:51:08.626Z,32.36
2022-08-19T16:53:35.827Z,32.30
2022-08-19T16:56:02.567Z,32.66
2022-08-19T16:58:29.634Z,32.90
2022-08-19T17:00:59.577Z,33.17
2022-08-19T17:03:36.210Z,33.33
2022-08-19T17:06:08.128Z,33.71
2022-08-19T17:08:48.565Z,33.98
2022-08-19T17:11:18.497Z,33.77
2022-08-19T17:13:48.090Z,33.97
2022-08-19T17:16:15.621Z,34.59
2022-08-19T17:18:42.091Z,34.74
2022-08-19T17:21:08.546Z,35.15
2022-08-19T17:23:43.222Z,35.21
2022-08-19T17:26:16.743Z,35.30
2022-08-19T17:28:44.958Z,36.56
2022-08-19T17:31:11.576Z,38.13
2022-08-19T17:33:41.369Z,38.74
2022-08-19T17:36:08.399Z,38.36
2022-08-19T17:38:35.961Z,38.72
2022-08-19T17:41:06.087Z,37.92
2022-08-19T17:43:34.540Z,38.62
2022-08-19T17:46:04.585Z,39.48
2022-08-19T17:48:32.042Z,40.17
2022-08-19T17:51:00.434Z,40.52
2022-08-19T17:53:26.877Z,40.33
2022-08-19T17:55:53.344Z,40.42
2022-08-19T17:58:20.545Z,40.22
2022-08-19T18:00:53.742Z,40.57
2022-08-19T18:03:22.131Z,41.01
2022-08-19T18:05:48.600Z,41.28
2022-08-19T18:08:15.318Z,41.15
2022-08-19T18:10:41.762Z,41.11
2022-08-19T18:13:10.056Z,41.57
2022-08-19T18:15:44.395Z,40.52
2022-08-19T18:18:14.899Z,40.90
2022-08-19T18:20:41.923Z,41.09
2022-08-19T18:23:44.707Z,41.48
2022-08-19T18:25:54.951Z,41.32
2022-08-19T18:28:21.538Z,41.62
2022-08-19T18:30:48.038Z,41.98
2022-08-19T18:33:15.154Z,42.28
2022-08-19T18:35:45.789Z,42.27
2022-08-19T18:38:34.973Z,42.50
2022-08-19T18:41:20.809Z,42.40
2022-08-19T18:44:05.772Z,47.33
2022-08-19T18:46:50.983Z,40.97
2022-08-19T18:49:20.310Z,44.65
2022-08-19T18:51:46.768Z,53.28
2022-08-19T18:54:13.293Z,44.98
2022-08-19T18:56:43.827Z,44.73
2022-08-19T18:59:11.429Z,46.13
2022-08-19T19:01:39.519Z,47.31
2022-08-19T19:04:10.655Z,46.33
2022-08-19T19:06:40.461Z,44.33
2022-08-19T19:09:08.244Z,45.89
2022-08-19T19:11:37.197Z,46.67
2022-08-19T19:14:05.652Z,47.53
2022-08-19T19:16:32.608Z,49.93
2022-08-19T19:18:59.573Z,50.85
2022-08-19T19:21:26.766Z,58.48
2022-08-19T19:23:53.997Z,60.21
2022-08-19T19:26:21.725Z,64.07
2022-08-19T19:28:49.019Z,63.22
2022-08-19T19:31:17.431Z,63.44
2022-08-19T19:33:44.529Z,61.19
2022-08-19T19:36:11.011Z,60.39
2022-08-19T19:38:37.549Z,60.30
2022-08-19T19:41:04.745Z,60.09
2022-08-19T19:43:35.895Z,60.35
2022-08-19T19:46:07.967Z,59.22
2022-08-19T19:48:35.498Z,58.69
2022-08-19T19:51:02.723Z,57.24
2022-08-19T19:53:29.186Z,56.04
2022-08-19T19:55:58.919Z,56.64
2022-08-19T19:58:28.996Z,56.66
2022-08-19T20:00:56.099Z,57.43
2022-08-19T20:03:22.626Z,57.22
2022-08-19T20:05:49.150Z,55.40
2022-08-19T20:08:35.860Z,55.99
2022-08-19T20:11:03.338Z,56.35
2022-08-19T20:13:30.400Z,59.37
